sensor_id;sensor_type;location;lat;lon;timestamp;pressure;altitude;pressure_sealevel;temperature;humidity
3082;BME280;1551;51.046;7.010;2023-05-08T00:01:31;101297.00;;;18.14;89.17
3082;BME280;1551;51.046;7.010;2023-05-08T00:04:20;101299.66;;;18.11;90.27
3082;BME280;1551;51.046;7.010;2023-05-08T00:07:09;101295.44;;;18.08;90.54
3082;BME280;1551;51.046;7.010;2023-05-08T00:09:58;101301.38;;;18.12;90.47
3082;BME280;1551;51.046;7.010;2023-05-08T00:12:47;101303.97;;;18.12;91.00
3082;BME280;1551;51.046;7.010;2023-05-08T00:15:36;101313.47;;;18.11;90.32
3082;BME280;1551;51.046;7.010;2023-05-08T00:18:25;101307.44;;;18.11;89.79
3082;BME280;1551;51.046;7.010;2023-05-08T00:21:14;101304.94;;;18.08;89.73
3082;BME280;1551;51.046;7.010;2023-05-08T00:24:03;101304.13;;;18.07;89.49
3082;BME280;1551;51.046;7.010;2023-05-08T00:26:52;101311.13;;;18.04;89.55
3082;BME280;1551;51.046;7.010;2023-05-08T00:29:41;101313.84;;;17.99;89.43
3082;BME280;1551;51.046;7.010;2023-05-08T00:32:30;101307.78;;;18.00;89.36
3082;BME280;1551;51.046;7.010;2023-05-08T00:35:19;101316.50;;;17.98;90.03
3082;BME280;1551;51.046;7.010;2023-05-08T00:38:08;101312.19;;;17.97;90.00
3082;BME280;1551;51.046;7.010;2023-05-08T00:40:58;101316.53;;;17.96;90.49
3082;BME280;1551;51.046;7.010;2023-05-08T00:43:48;101320.03;;;17.94;89.65
3082;BME280;1551;51.046;7.010;2023-05-08T00:46:37;101316.81;;;17.87;89.68
3082;BME280;1551;51.046;7.010;2023-05-08T00:49:25;101310.88;;;17.83;90.12
3082;BME280;1551;51.046;7.010;2023-05-08T00:52:15;101307.50;;;17.81;90.56
3082;BME280;1551;51.046;7.010;2023-05-08T00:55:05;101319.59;;;17.81;90.54
3082;BME280;1551;51.046;7.010;2023-05-08T00:57:54;101319.75;;;17.75;90.05
3082;BME280;1551;51.046;7.010;2023-05-08T01:00:43;101316.41;;;17.71;90.46
3082;BME280;1551;51.046;7.010;2023-05-08T01:03:35;101318.28;;;17.66;90.41
3082;BME280;1551;51.046;7.010;2023-05-08T01:06:24;101317.44;;;17.66;90.82
3082;BME280;1551;51.046;7.010;2023-05-08T01:09:13;101314.13;;;17.61;91.01
3082;BME280;1551;51.046;7.010;2023-05-08T01:12:16;101316.06;;;17.54;90.70
3082;BME280;1551;51.046;7.010;2023-05-08T01:15:14;101318.75;;;17.50;90.51
3082;BME280;1551;51.046;7.010;2023-05-08T01:18:22;101318.78;;;17.48;90.88
3082;BME280;1551;51.046;7.010;2023-05-08T01:22:19;101313.53;;;17.51;90.44
3082;BME280;1551;51.046;7.010;2023-05-08T01:31:23;101322.03;;;17.56;90.99
3082;BME280;1551;51.046;7.010;2023-05-08T01:34:19;101321.94;;;17.59;90.53
3082;BME280;1551;51.046;7.010;2023-05-08T01:37:14;101326.47;;;17.51;90.90
3082;BME280;1551;51.046;7.010;2023-05-08T01:40:34;101329.22;;;17.45;91.20
3082;BME280;1551;51.046;7.010;2023-05-08T01:43:47;101325.88;;;17.42;91.52
3082;BME280;1551;51.046;7.010;2023-05-08T01:46:38;101325.78;;;17.45;90.91
3082;BME280;1551;51.046;7.010;2023-05-08T01:49:31;101320.75;;;17.40;91.72
3082;BME280;1551;51.046;7.010;2023-05-08T01:52:30;101336.38;;;17.36;91.84
3082;BME280;1551;51.046;7.010;2023-05-08T01:55:23;101334.59;;;17.38;92.02
3082;BME280;1551;51.046;7.010;2023-05-08T01:58:15;101333.94;;;17.31;92.70
3082;BME280;1551;51.046;7.010;2023-05-08T02:01:04;101333.06;;;17.32;93.14
3082;BME280;1551;51.046;7.010;2023-05-08T02:03:54;101330.34;;;17.35;92.97
3082;BME280;1551;51.046;7.010;2023-05-08T02:06:44;101337.19;;;17.38;92.74
3082;BME280;1551;51.046;7.010;2023-05-08T02:09:35;101346.66;;;17.39;92.71
3082;BME280;1551;51.046;7.010;2023-05-08T02:12:26;101349.38;;;17.34;92.35
3082;BME280;1551;51.046;7.010;2023-05-08T02:15:16;101353.72;;;17.34;92.15
3082;BME280;1551;51.046;7.010;2023-05-08T02:18:07;101347.72;;;17.32;92.74
3082;BME280;1551;51.046;7.010;2023-05-08T02:20:58;101347.00;;;17.27;92.50
3082;BME280;1551;51.046;7.010;2023-05-08T02:23:49;101343.44;;;17.31;92.80
3082;BME280;1551;51.046;7.010;2023-05-08T02:26:41;101345.09;;;17.33;92.46
3082;BME280;1551;51.046;7.010;2023-05-08T02:29:32;101351.03;;;17.37;92.50
3082;BME280;1551;51.046;7.010;2023-05-08T02:32:24;101344.22;;;17.34;92.64
3082;BME280;1551;51.046;7.010;2023-05-08T02:35:17;101347.66;;;17.35;93.11
3082;BME280;1551;51.046;7.010;2023-05-08T02:38:07;101346.88;;;17.31;92.88
3082;BME280;1551;51.046;7.010;2023-05-08T02:40:59;101356.25;;;17.35;92.19
3082;BME280;1551;51.046;7.010;2023-05-08T02:43:49;101353.75;;;17.32;91.68
3082;BME280;1551;51.046;7.010;2023-05-08T02:46:59;101359.09;;;17.26;91.98
3082;BME280;1551;51.046;7.010;2023-05-08T02:50:28;101363.38;;;17.27;92.36
3082;BME280;1551;51.046;7.010;2023-05-08T02:53:28;101356.47;;;17.28;92.47
3082;BME280;1551;51.046;7.010;2023-05-08T02:56:33;101354.81;;;17.25;92.13
3082;BME280;1551;51.046;7.010;2023-05-08T02:59:30;101354.75;;;17.27;91.37
3082;BME280;1551;51.046;7.010;2023-05-08T03:02:34;101357.41;;;17.24;91.64
3082;BME280;1551;51.046;7.010;2023-05-08T03:05:31;101357.53;;;17.21;91.67
3082;BME280;1551;51.046;7.010;2023-05-08T03:08:28;101337.94;;;17.10;91.85
3082;BME280;1551;51.046;7.010;2023-05-08T03:11:27;101348.91;;;17.20;91.87
3082;BME280;1551;51.046;7.010;2023-05-08T03:14:22;101331.25;;;17.03;91.80
3082;BME280;1551;51.046;7.010;2023-05-08T03:17:15;101352.63;;;17.10;91.69
3082;BME280;1551;51.046;7.010;2023-05-08T03:20:08;101349.16;;;17.11;92.68
3082;BME280;1551;51.046;7.010;2023-05-08T03:23:01;101349.19;;;17.09;92.39
3082;BME280;1551;51.046;7.010;2023-05-08T03:25:51;101344.19;;;17.03;92.56
3082;BME280;1551;51.046;7.010;2023-05-08T03:28:41;101356.13;;;17.07;92.51
3082;BME280;1551;51.046;7.010;2023-05-08T03:31:30;101341.72;;;16.99;92.77
3082;BME280;1551;51.046;7.010;2023-05-08T03:34:22;101352.06;;;16.97;92.97
3082;BME280;1551;51.046;7.010;2023-05-08T03:37:11;101353.91;;;16.94;93.18
3082;BME280;1551;51.046;7.010;2023-05-08T03:40:01;101341.16;;;16.88;93.16
3082;BME280;1551;51.046;7.010;2023-05-08T03:42:50;101346.34;;;16.86;93.14
3082;BME280;1551;51.046;7.010;2023-05-08T03:45:40;101339.56;;;16.82;93.63
3082;BME280;1551;51.046;7.010;2023-05-08T03:48:31;101334.50;;;16.78;93.44
3082;BME280;1551;51.046;7.010;2023-05-08T03:51:21;101339.59;;;16.81;93.47
3082;BME280;1551;51.046;7.010;2023-05-08T03:54:11;101326.97;;;16.69;92.86
3082;BME280;1551;51.046;7.010;2023-05-08T03:57:00;101325.28;;;16.68;92.84
3082;BME280;1551;51.046;7.010;2023-05-08T04:00:31;101327.97;;;16.63;92.49
3082;BME280;1551;51.046;7.010;2023-05-08T04:06:55;101340.25;;;16.55;92.77
3082;BME280;1551;51.046;7.010;2023-05-08T04:10:02;101341.88;;;16.58;93.09
3082;BME280;1551;51.046;7.010;2023-05-08T04:13:06;101324.38;;;16.33;92.71
3082;BME280;1551;51.046;7.010;2023-05-08T04:16:08;101336.00;;;16.51;92.86
3082;BME280;1551;51.046;7.010;2023-05-08T04:19:01;101353.13;;;16.57;92.28
3082;BME280;1551;51.046;7.010;2023-05-08T04:21:57;101354.81;;;16.58;92.07
3082;BME280;1551;51.046;7.010;2023-05-08T04:24:48;101354.91;;;16.55;91.41
3082;BME280;1551;51.046;7.010;2023-05-08T04:27:39;101357.56;;;16.50;91.28
3082;BME280;1551;51.046;7.010;2023-05-08T04:30:29;101359.34;;;16.48;90.73
3082;BME280;1551;51.046;7.010;2023-05-08T04:33:18;101361.91;;;16.48;90.70
3082;BME280;1551;51.046;7.010;2023-05-08T04:36:10;101351.72;;;16.42;90.08
3082;BME280;1551;51.046;7.010;2023-05-08T04:39:00;101358.44;;;16.49;90.31
3082;BME280;1551;51.046;7.010;2023-05-08T04:41:50;101361.94;;;16.46;90.20
3082;BME280;1551;51.046;7.010;2023-05-08T04:44:41;101355.03;;;16.47;90.12
3082;BME280;1551;51.046;7.010;2023-05-08T04:47:30;101363.56;;;16.52;89.61
3082;BME280;1551;51.046;7.010;2023-05-08T04:50:19;101359.34;;;16.46;89.43
3082;BME280;1551;51.046;7.010;2023-05-08T04:53:09;101360.22;;;16.47;88.95
3082;BME280;1551;51.046;7.010;2023-05-08T04:55:58;101349.06;;;16.43;88.52
3082;BME280;1551;51.046;7.010;2023-05-08T04:58:48;101365.38;;;16.47;88.62
3082;BME280;1551;51.046;7.010;2023-05-08T05:01:37;101361.97;;;16.45;88.82
3082;BME280;1551;51.046;7.010;2023-05-08T05:04:26;101364.56;;;16.45;88.47
3082;BME280;1551;51.046;7.010;2023-05-08T05:07:17;101380.75;;;16.53;88.25
3082;BME280;1551;51.046;7.010;2023-05-08T05:10:07;101353.53;;;16.38;88.16
3082;BME280;1551;51.046;7.010;2023-05-08T05:12:56;101351.78;;;16.39;88.87
3082;BME280;1551;51.046;7.010;2023-05-08T05:15:45;101377.44;;;16.48;88.72
3082;BME280;1551;51.046;7.010;2023-05-08T05:18:35;101375.63;;;16.52;88.78
3082;BME280;1551;51.046;7.010;2023-05-08T05:21:24;101375.94;;;16.38;88.59
3082;BME280;1551;51.046;7.010;2023-05-08T05:24:14;101403.28;;;16.46;89.30
3082;BME280;1551;51.046;7.010;2023-05-08T05:27:02;101395.50;;;16.48;89.22
3082;BME280;1551;51.046;7.010;2023-05-08T05:29:52;101391.03;;;16.56;88.99
3082;BME280;1551;51.046;7.010;2023-05-08T05:32:41;101395.91;;;16.68;88.69
3082;BME280;1551;51.046;7.010;2023-05-08T05:35:30;101389.94;;;16.66;88.75
3082;BME280;1551;51.046;7.010;2023-05-08T05:38:20;101395.69;;;16.77;88.61
3082;BME280;1551;51.046;7.010;2023-05-08T05:41:09;101396.50;;;16.79;88.26
3082;BME280;1551;51.046;7.010;2023-05-08T05:43:58;101398.06;;;16.86;87.94
3082;BME280;1551;51.046;7.010;2023-05-08T05:46:47;101384.53;;;16.75;87.39
3082;BME280;1551;51.046;7.010;2023-05-08T05:49:36;101409.19;;;16.90;87.17
3082;BME280;1551;51.046;7.010;2023-05-08T05:52:27;101416.13;;;16.88;86.72
3082;BME280;1551;51.046;7.010;2023-05-08T05:55:16;101398.22;;;16.79;86.73
3082;BME280;1551;51.046;7.010;2023-05-08T05:58:06;101417.88;;;16.86;86.18
3082;BME280;1551;51.046;7.010;2023-05-08T06:00:57;101416.94;;;16.90;85.92
3082;BME280;1551;51.046;7.010;2023-05-08T06:03:48;101414.34;;;16.90;85.86
3082;BME280;1551;51.046;7.010;2023-05-08T06:06:37;101413.56;;;16.88;85.75
3082;BME280;1551;51.046;7.010;2023-05-08T06:09:26;101404.19;;;16.82;85.67
3082;BME280;1551;51.046;7.010;2023-05-08T06:12:15;101417.56;;;16.99;85.13
3082;BME280;1551;51.046;7.010;2023-05-08T06:15:06;101418.31;;;17.03;85.12
3082;BME280;1551;51.046;7.010;2023-05-08T06:17:56;101420.06;;;17.02;84.70
3082;BME280;1551;51.046;7.010;2023-05-08T06:20:45;101430.50;;;16.99;84.34
3082;BME280;1551;51.046;7.010;2023-05-08T06:23:34;101433.00;;;17.02;84.68
3082;BME280;1551;51.046;7.010;2023-05-08T06:26:23;101431.22;;;17.04;84.23
3082;BME280;1551;51.046;7.010;2023-05-08T06:29:12;101431.13;;;17.09;83.79
3082;BME280;1551;51.046;7.010;2023-05-08T06:32:01;101438.16;;;17.04;83.67
3082;BME280;1551;51.046;7.010;2023-05-08T06:34:50;101427.81;;;17.02;83.71
3082;BME280;1551;51.046;7.010;2023-05-08T06:37:39;101432.06;;;17.06;83.53
3082;BME280;1551;51.046;7.010;2023-05-08T06:40:29;101444.81;;;17.12;83.46
3082;BME280;1551;51.046;7.010;2023-05-08T06:43:18;101432.06;;;17.06;83.09
3082;BME280;1551;51.046;7.010;2023-05-08T06:46:07;101438.59;;;17.19;83.23
3082;BME280;1551;51.046;7.010;2023-05-08T06:48:56;101438.53;;;17.23;82.70
3082;BME280;1551;51.046;7.010;2023-05-08T06:51:45;101433.31;;;17.24;82.33
3082;BME280;1551;51.046;7.010;2023-05-08T06:54:34;101421.06;;;17.31;82.55
3082;BME280;1551;51.046;7.010;2023-05-08T06:57:23;101427.09;;;17.31;81.97
3082;BME280;1551;51.046;7.010;2023-05-08T07:00:14;101429.69;;;17.31;81.81
3082;BME280;1551;51.046;7.010;2023-05-08T07:03:03;101425.09;;;17.41;81.87
3082;BME280;1551;51.046;7.010;2023-05-08T07:05:52;101415.75;;;17.35;81.58
3082;BME280;1551;51.046;7.010;2023-05-08T07:08:41;101407.97;;;17.37;82.17
3082;BME280;1551;51.046;7.010;2023-05-08T07:11:30;101414.03;;;17.36;82.03
3082;BME280;1551;51.046;7.010;2023-05-08T07:14:19;101410.06;;;17.23;82.37
3082;BME280;1551;51.046;7.010;2023-05-08T07:17:08;101429.09;;;17.20;82.62
3082;BME280;1551;51.046;7.010;2023-05-08T07:19:57;101412.59;;;17.24;82.88
3082;BME280;1551;51.046;7.010;2023-05-08T07:22:46;101416.28;;;17.48;82.42
3082;BME280;1551;51.046;7.010;2023-05-08T07:25:35;101421.97;;;17.62;81.81
3082;BME280;1551;51.046;7.010;2023-05-08T07:28:24;101437.78;;;17.83;80.52
3082;BME280;1551;51.046;7.010;2023-05-08T07:31:13;101440.78;;;17.99;79.76
3082;BME280;1551;51.046;7.010;2023-05-08T07:34:03;101446.13;;;18.24;79.43
3082;BME280;1551;51.046;7.010;2023-05-08T07:36:52;101437.16;;;18.34;78.54
3082;BME280;1551;51.046;7.010;2023-05-08T07:39:41;101443.81;;;18.42;77.70
3082;BME280;1551;51.046;7.010;2023-05-08T07:42:30;101435.97;;;18.45;77.49
3082;BME280;1551;51.046;7.010;2023-05-08T07:45:19;101455.88;;;18.73;76.64
3082;BME280;1551;51.046;7.010;2023-05-08T07:48:08;101457.03;;;18.90;76.61
3082;BME280;1551;51.046;7.010;2023-05-08T07:50:57;101452.03;;;19.10;75.55
3082;BME280;1551;51.046;7.010;2023-05-08T07:53:46;101448.75;;;19.30;74.69
3082;BME280;1551;51.046;7.010;2023-05-08T07:56:36;101461.06;;;19.51;73.77
3082;BME280;1551;51.046;7.010;2023-05-08T07:59:25;101467.66;;;19.84;72.22
3082;BME280;1551;51.046;7.010;2023-05-08T08:02:14;101464.88;;;20.14;70.86
3082;BME280;1551;51.046;7.010;2023-05-08T08:05:04;101464.97;;;20.34;70.54
3082;BME280;1551;51.046;7.010;2023-05-08T08:07:53;101460.13;;;20.25;69.69
3082;BME280;1551;51.046;7.010;2023-05-08T08:10:42;101463.34;;;20.31;70.74
3082;BME280;1551;51.046;7.010;2023-05-08T08:13:31;101468.19;;;20.40;69.67
3082;BME280;1551;51.046;7.010;2023-05-08T08:16:21;101471.59;;;20.42;69.45
3082;BME280;1551;51.046;7.010;2023-05-08T08:19:10;101474.13;;;20.44;68.51
3082;BME280;1551;51.046;7.010;2023-05-08T08:21:59;101475.78;;;20.23;69.40
3082;BME280;1551;51.046;7.010;2023-05-08T08:24:48;101455.25;;;20.16;70.10
3082;BME280;1551;51.046;7.010;2023-05-08T08:27:37;101468.13;;;20.19;69.69
3082;BME280;1551;51.046;7.010;2023-05-08T08:30:27;101473.72;;;20.08;69.76
3082;BME280;1551;51.046;7.010;2023-05-08T08:33:16;101456.91;;;19.95;69.82
3082;BME280;1551;51.046;7.010;2023-05-08T08:36:11;101478.06;;;20.54;68.46
3082;BME280;1551;51.046;7.010;2023-05-08T08:39:00;101470.94;;;20.81;67.40
3082;BME280;1551;51.046;7.010;2023-05-08T08:41:50;101465.00;;;20.99;66.32
3082;BME280;1551;51.046;7.010;2023-05-08T08:44:39;101463.97;;;21.03;65.05
3082;BME280;1551;51.046;7.010;2023-05-08T08:47:28;101457.97;;;21.01;65.07
3082;BME280;1551;51.046;7.010;2023-05-08T08:50:23;101448.66;;;20.95;64.55
3082;BME280;1551;51.046;7.010;2023-05-08T08:53:21;101458.34;;;20.92;65.66
3082;BME280;1551;51.046;7.010;2023-05-08T08:56:14;101458.03;;;20.99;64.30
3082;BME280;1551;51.046;7.010;2023-05-08T08:59:05;101455.88;;;21.10;64.14
3082;BME280;1551;51.046;7.010;2023-05-08T09:01:56;101452.59;;;21.47;63.92
3082;BME280;1551;51.046;7.010;2023-05-08T09:04:48;101440.13;;;21.54;62.79
3082;BME280;1551;51.046;7.010;2023-05-08T09:07:37;101462.97;;;21.67;64.09
3082;BME280;1551;51.046;7.010;2023-05-08T09:10:26;101463.03;;;21.46;63.68
3082;BME280;1551;51.046;7.010;2023-05-08T09:13:15;101466.81;;;21.18;64.43
3082;BME280;1551;51.046;7.010;2023-05-08T09:16:06;101470.41;;;21.36;64.21
3082;BME280;1551;51.046;7.010;2023-05-08T09:18:55;101469.03;;;21.28;63.89
3082;BME280;1551;51.046;7.010;2023-05-08T09:21:44;101462.38;;;21.41;64.01
3082;BME280;1551;51.046;7.010;2023-05-08T09:27:42;101477.03;;;21.23;63.59
3082;BME280;1551;51.046;7.010;2023-05-08T09:30:47;101468.22;;;21.05;63.04
3082;BME280;1551;51.046;7.010;2023-05-08T09:33:42;101465.97;;;20.96;63.20
3082;BME280;1551;51.046;7.010;2023-05-08T09:36:32;101461.78;;;20.92;63.45
3082;BME280;1551;51.046;7.010;2023-05-08T09:39:23;101461.38;;;20.81;64.23
3082;BME280;1551;51.046;7.010;2023-05-08T09:42:13;101460.38;;;21.07;64.19
3082;BME280;1551;51.046;7.010;2023-05-08T09:45:02;101472.69;;;21.02;63.92
3082;BME280;1551;51.046;7.010;2023-05-08T09:47:51;101474.41;;;20.81;65.12
3082;BME280;1551;51.046;7.010;2023-05-08T09:50:40;101470.56;;;20.90;64.60
3082;BME280;1551;51.046;7.010;2023-05-08T09:53:30;101470.84;;;20.84;64.33
3082;BME280;1551;51.046;7.010;2023-05-08T09:56:30;101473.84;;;20.73;65.26
3082;BME280;1551;51.046;7.010;2023-05-08T09:59:24;101476.25;;;20.78;65.23
3082;BME280;1551;51.046;7.010;2023-05-08T10:02:14;101471.13;;;20.76;65.35
3082;BME280;1551;51.046;7.010;2023-05-08T10:05:28;101477.41;;;20.71;65.92
3082;BME280;1551;51.046;7.010;2023-05-08T10:08:23;101465.25;;;20.93;66.87
3082;BME280;1551;51.046;7.010;2023-05-08T10:11:15;101465.50;;;21.08;66.20
3082;BME280;1551;51.046;7.010;2023-05-08T10:14:04;101470.94;;;21.24;65.86
3082;BME280;1551;51.046;7.010;2023-05-08T10:16:54;101466.81;;;21.18;66.30
3082;BME280;1551;51.046;7.010;2023-05-08T10:19:44;101469.88;;;21.28;66.54
3082;BME280;1551;51.046;7.010;2023-05-08T10:22:36;101471.63;;;21.28;66.10
3082;BME280;1551;51.046;7.010;2023-05-08T10:25:30;101465.72;;;21.24;66.54
3082;BME280;1551;51.046;7.010;2023-05-08T10:28:32;101461.59;;;21.18;67.09
3082;BME280;1551;51.046;7.010;2023-05-08T10:31:27;101457.06;;;21.23;66.82
3082;BME280;1551;51.046;7.010;2023-05-08T10:34:18;101454.50;;;21.22;66.84
3082;BME280;1551;51.046;7.010;2023-05-08T10:37:09;101454.97;;;21.32;66.92
3082;BME280;1551;51.046;7.010;2023-05-08T10:39:59;101440.78;;;21.18;66.94
3082;BME280;1551;51.046;7.010;2023-05-08T10:42:49;101448.91;;;21.31;66.83
3082;BME280;1551;51.046;7.010;2023-05-08T10:45:39;101437.72;;;21.29;66.78
3082;BME280;1551;51.046;7.010;2023-05-08T10:48:40;101441.25;;;21.28;66.18
3082;BME280;1551;51.046;7.010;2023-05-08T10:51:43;101437.97;;;21.23;65.83
3082;BME280;1551;51.046;7.010;2023-05-08T10:54:50;101438.88;;;21.22;65.58
3082;BME280;1551;51.046;7.010;2023-05-08T11:03:54;101439.81;;;20.99;66.12
3082;BME280;1551;51.046;7.010;2023-05-08T11:06:47;101438.44;;;20.91;67.84
3082;BME280;1551;51.046;7.010;2023-05-08T11:12:30;101445.44;;;21.10;68.08
3082;BME280;1551;51.046;7.010;2023-05-08T11:15:34;101445.72;;;21.04;68.35
3082;BME280;1551;51.046;7.010;2023-05-08T11:18:24;101440.97;;;20.92;68.07
3082;BME280;1551;51.046;7.010;2023-05-08T11:21:14;101447.44;;;21.04;67.89
3082;BME280;1551;51.046;7.010;2023-05-08T11:24:09;101434.91;;;20.92;67.49
3082;BME280;1551;51.046;7.010;2023-05-08T11:26:59;101437.81;;;20.84;67.69
3082;BME280;1551;51.046;7.010;2023-05-08T11:33:16;101435.59;;;20.75;68.11
3082;BME280;1551;51.046;7.010;2023-05-08T11:36:15;101442.50;;;20.76;68.42
3082;BME280;1551;51.046;7.010;2023-05-08T11:39:09;101437.41;;;20.73;68.38
3082;BME280;1551;51.046;7.010;2023-05-08T11:45:18;101428.59;;;20.55;69.37
3082;BME280;1551;51.046;7.010;2023-05-08T11:48:12;101424.06;;;20.61;69.10
3082;BME280;1551;51.046;7.010;2023-05-08T11:51:02;101429.09;;;20.65;69.15
3082;BME280;1551;51.046;7.010;2023-05-08T11:53:51;101435.06;;;20.67;68.80
3082;BME280;1551;51.046;7.010;2023-05-08T11:56:40;101436.72;;;20.70;68.34
3082;BME280;1551;51.046;7.010;2023-05-08T11:59:34;101432.16;;;20.75;67.81
3082;BME280;1551;51.046;7.010;2023-05-08T12:02:39;101437.97;;;20.81;68.11
3082;BME280;1551;51.046;7.010;2023-05-08T12:05:28;101441.06;;;20.69;68.14
3082;BME280;1551;51.046;7.010;2023-05-08T12:08:17;101444.22;;;20.55;69.46
3082;BME280;1551;51.046;7.010;2023-05-08T12:11:06;101435.84;;;20.69;69.30
3082;BME280;1551;51.046;7.010;2023-05-08T12:13:55;101445.63;;;20.84;69.46
3082;BME280;1551;51.046;7.010;2023-05-08T12:16:45;101442.25;;;20.82;70.15
3082;BME280;1551;51.046;7.010;2023-05-08T12:19:34;101436.66;;;20.91;70.40
3082;BME280;1551;51.046;7.010;2023-05-08T12:22:24;101436.66;;;20.91;70.50
3082;BME280;1551;51.046;7.010;2023-05-08T12:25:12;101418.22;;;20.76;71.07
3082;BME280;1551;51.046;7.010;2023-05-08T12:28:02;101433.78;;;20.77;71.38
3082;BME280;1551;51.046;7.010;2023-05-08T12:30:52;101440.13;;;20.70;72.52
3082;BME280;1551;51.046;7.010;2023-05-08T12:33:41;101440.09;;;20.72;71.16
3082;BME280;1551;51.046;7.010;2023-05-08T12:36:35;101432.06;;;20.56;72.25
3082;BME280;1551;51.046;7.010;2023-05-08T12:39:24;101431.50;;;20.48;72.50
3082;BME280;1551;51.046;7.010;2023-05-08T12:42:13;101439.41;;;20.45;72.71
3082;BME280;1551;51.046;7.010;2023-05-08T12:45:03;101434.13;;;20.25;72.95
3082;BME280;1551;51.046;7.010;2023-05-08T12:47:53;101432.81;;;20.13;73.75
3082;BME280;1551;51.046;7.010;2023-05-08T12:50:45;101422.81;;;20.03;74.39
3082;BME280;1551;51.046;7.010;2023-05-08T12:53:36;101420.38;;;19.98;74.89
3082;BME280;1551;51.046;7.010;2023-05-08T12:56:25;101421.94;;;20.02;74.67
3082;BME280;1551;51.046;7.010;2023-05-08T12:59:14;101407.97;;;20.06;74.87
3082;BME280;1551;51.046;7.010;2023-05-08T13:02:03;101415.47;;;19.90;74.42
3082;BME280;1551;51.046;7.010;2023-05-08T13:04:53;101401.31;;;19.76;74.83
3082;BME280;1551;51.046;7.010;2023-05-08T13:07:43;101405.91;;;19.91;74.95
3082;BME280;1551;51.046;7.010;2023-05-08T13:13:35;101407.72;;;19.89;74.57
3082;BME280;1551;51.046;7.010;2023-05-08T13:16:24;101398.56;;;19.79;74.23
3082;BME280;1551;51.046;7.010;2023-05-08T13:19:14;101385.88;;;19.71;74.76
3082;BME280;1551;51.046;7.010;2023-05-08T13:22:06;101401.13;;;19.80;74.27
3082;BME280;1551;51.046;7.010;2023-05-08T13:24:55;101394.22;;;19.79;74.26
3082;BME280;1551;51.046;7.010;2023-05-08T13:27:44;101391.47;;;19.84;74.44
3082;BME280;1551;51.046;7.010;2023-05-08T13:30:34;101386.16;;;19.87;75.00
3082;BME280;1551;51.046;7.010;2023-05-08T13:33:24;101355.75;;;19.89;74.73
3082;BME280;1551;51.046;7.010;2023-05-08T13:36:13;101373.88;;;20.14;75.04
3082;BME280;1551;51.046;7.010;2023-05-08T13:39:02;101370.97;;;20.00;74.40
3082;BME280;1551;51.046;7.010;2023-05-08T13:41:51;101368.19;;;20.04;75.02
3082;BME280;1551;51.046;7.010;2023-05-08T13:44:40;101363.69;;;20.08;74.87
3082;BME280;1551;51.046;7.010;2023-05-08T13:47:29;101360.94;;;20.12;74.81
3082;BME280;1551;51.046;7.010;2023-05-08T13:50:19;101366.88;;;20.16;74.65
3082;BME280;1551;51.046;7.010;2023-05-08T13:53:09;101361.00;;;20.11;74.43
3082;BME280;1551;51.046;7.010;2023-05-08T13:55:58;101359.72;;;20.22;74.55
3082;BME280;1551;51.046;7.010;2023-05-08T13:58:47;101346.72;;;20.44;74.03
3082;BME280;1551;51.046;7.010;2023-05-08T14:01:36;101358.75;;;20.46;73.21
3082;BME280;1551;51.046;7.010;2023-05-08T14:04:25;101356.34;;;20.62;73.53
3082;BME280;1551;51.046;7.010;2023-05-08T14:07:14;101351.16;;;20.82;72.14
3082;BME280;1551;51.046;7.010;2023-05-08T14:10:04;101353.38;;;20.91;71.18
3082;BME280;1551;51.046;7.010;2023-05-08T14:12:54;101352.16;;;21.00;70.86
3082;BME280;1551;51.046;7.010;2023-05-08T14:15:42;101351.19;;;21.02;70.25
3082;BME280;1551;51.046;7.010;2023-05-08T14:18:31;101352.03;;;21.03;69.96
3082;BME280;1551;51.046;7.010;2023-05-08T14:21:20;101351.31;;;21.19;69.93
3082;BME280;1551;51.046;7.010;2023-05-08T14:24:09;101351.59;;;21.13;68.52
3082;BME280;1551;51.046;7.010;2023-05-08T14:26:59;101340.53;;;21.08;68.57
3082;BME280;1551;51.046;7.010;2023-05-08T14:29:49;101350.53;;;21.38;68.92
3082;BME280;1551;51.046;7.010;2023-05-08T14:32:41;101346.81;;;21.62;67.71
3082;BME280;1551;51.046;7.010;2023-05-08T14:35:30;101326.19;;;21.57;67.07
3082;BME280;1551;51.046;7.010;2023-05-08T14:38:19;101350.22;;;21.82;66.70
3082;BME280;1551;51.046;7.010;2023-05-08T14:41:08;101352.72;;;21.85;66.45
3082;BME280;1551;51.046;7.010;2023-05-08T14:43:57;101349.84;;;21.92;66.26
3082;BME280;1551;51.046;7.010;2023-05-08T14:46:46;101359.69;;;22.22;65.62
3082;BME280;1551;51.046;7.010;2023-05-08T14:49:35;101338.94;;;22.55;65.28
3082;BME280;1551;51.046;7.010;2023-05-08T14:52:24;101328.00;;;22.83;64.22
3082;BME280;1551;51.046;7.010;2023-05-08T14:55:13;101329.28;;;23.08;63.05
3082;BME280;1551;51.046;7.010;2023-05-08T14:58:08;101339.03;;;23.55;61.20
3082;BME280;1551;51.046;7.010;2023-05-08T15:00:57;101343.94;;;23.76;60.16
3082;BME280;1551;51.046;7.010;2023-05-08T15:03:45;101335.66;;;23.68;59.68
3082;BME280;1551;51.046;7.010;2023-05-08T15:06:40;101332.34;;;23.49;60.14
3082;BME280;1551;51.046;7.010;2023-05-08T15:09:29;101342.41;;;23.57;60.26
3082;BME280;1551;51.046;7.010;2023-05-08T15:12:18;101338.25;;;23.37;60.37
3082;BME280;1551;51.046;7.010;2023-05-08T15:15:07;101345.03;;;23.07;61.70
3082;BME280;1551;51.046;7.010;2023-05-08T15:17:57;101325.59;;;23.28;62.15
3082;BME280;1551;51.046;7.010;2023-05-08T15:20:46;101325.81;;;23.58;60.49
3082;BME280;1551;51.046;7.010;2023-05-08T15:23:34;101338.72;;;23.61;60.52
3082;BME280;1551;51.046;7.010;2023-05-08T15:26:23;101337.22;;;23.72;59.87
3082;BME280;1551;51.046;7.010;2023-05-08T15:29:12;101323.13;;;23.90;59.39
3082;BME280;1551;51.046;7.010;2023-05-08T15:32:02;101333.06;;;24.00;59.21
3082;BME280;1551;51.046;7.010;2023-05-08T15:34:51;101324.94;;;23.73;59.43
3082;BME280;1551;51.046;7.010;2023-05-08T15:38:15;101328.16;;;23.62;60.29
3082;BME280;1551;51.046;7.010;2023-05-08T15:41:08;101339.78;;;23.57;60.14
3082;BME280;1551;51.046;7.010;2023-05-08T15:44:01;101324.75;;;23.45;59.96
3082;BME280;1551;51.046;7.010;2023-05-08T15:46:50;101333.53;;;23.26;60.43
3082;BME280;1551;51.046;7.010;2023-05-08T15:49:39;101326.25;;;22.83;61.14
3082;BME280;1551;51.046;7.010;2023-05-08T15:52:29;101325.38;;;22.83;61.00